createdAt,value
2019-06-08T00:00:01.929Z,16.24
2019-06-08T00:01:02.171Z,16.21
2019-06-08T00:02:01.917Z,16.13
2019-06-08T00:03:02.171Z,16.31
2019-06-08T00:04:02.147Z,16.28
2019-06-08T00:05:01.925Z,16.24
2019-06-08T00:06:02.175Z,16.16
2019-06-08T00:07:02.162Z,16.2
2019-06-08T00:08:02.170Z,16.15
2019-06-08T00:09:02.150Z,16.17
2019-06-08T00:10:02.149Z,16.05
2019-06-08T00:11:02.148Z,16.09
2019-06-08T00:12:01.894Z,16.05
2019-06-08T00:13:02.149Z,16.08
2019-06-08T00:14:01.898Z,16.02
2019-06-08T00:15:02.181Z,16.04
2019-06-08T00:16:02.138Z,16.04
2019-06-08T00:17:01.643Z,16.05
2019-06-08T00:18:04.002Z,16.08
2019-06-08T00:19:01.632Z,15.9
2019-06-08T00:20:02.136Z,15.86
2019-06-08T00:21:02.130Z,15.83
2019-06-08T00:22:01.876Z,15.83
2019-06-08T00:23:01.879Z,15.86
2019-06-08T00:24:01.867Z,15.88
2019-06-08T00:25:02.304Z,15.84
2019-06-08T00:26:02.125Z,15.9
2019-06-08T00:27:01.876Z,15.94
2019-06-08T00:28:02.176Z,15.91
2019-06-08T00:29:01.874Z,15.97
2019-06-08T00:30:02.365Z,15.92
2019-06-08T00:31:01.866Z,15.98
2019-06-08T00:32:01.888Z,15.86
2019-06-08T00:33:02.126Z,15.92
2019-06-08T00:34:02.110Z,15.86
2019-06-08T00:35:01.862Z,15.9
2019-06-08T00:36:01.930Z,15.92
2019-06-08T00:37:01.876Z,15.92
2019-06-08T00:38:02.163Z,16.04
2019-06-08T00:39:01.872Z,16.04
2019-06-08T00:40:02.125Z,15.94
2019-06-08T00:41:02.119Z,15.94
2019-06-08T00:42:01.616Z,15.86
2019-06-08T00:43:02.105Z,15.9
2019-06-08T00:44:01.875Z,15.86
2019-06-08T00:45:01.866Z,16.01
2019-06-08T00:46:01.863Z,16.08
2019-06-08T00:47:02.101Z,16.09
2019-06-08T00:48:01.860Z,15.98
2019-06-08T00:49:01.839Z,15.98
2019-06-08T00:50:01.603Z,15.98
2019-06-08T00:51:01.827Z,15.92
2019-06-08T00:52:01.848Z,15.83
2019-06-08T00:53:01.841Z,15.92
2019-06-08T00:54:01.617Z,15.9
2019-06-08T00:55:01.589Z,15.83
2019-06-08T00:56:01.858Z,15.82
2019-06-08T00:57:01.583Z,15.84
2019-06-08T00:58:01.849Z,15.97
2019-06-08T00:59:01.832Z,15.98
2019-06-08T01:00:10.138Z,15.84
2019-06-08T01:01:02.142Z,15.94
2019-06-08T01:02:02.107Z,15.92
2019-06-08T01:03:02.085Z,15.9
2019-06-08T01:04:01.812Z,15.86
2019-06-08T01:05:02.091Z,15.86
2019-06-08T01:06:01.813Z,15.84
2019-06-08T01:07:01.829Z,15.76
2019-06-08T01:08:01.820Z,15.72
2019-06-08T01:09:01.559Z,15.83
2019-06-08T01:10:01.825Z,15.88
2019-06-08T01:11:02.078Z,15.8
2019-06-08T01:12:01.816Z,15.73
2019-06-08T01:13:01.583Z,15.76
2019-06-08T01:14:01.542Z,15.64
2019-06-08T01:15:01.882Z,15.61
2019-06-08T01:16:01.550Z,15.64
2019-06-08T01:17:02.042Z,15.59
2019-06-08T01:18:07.626Z,15.67
2019-06-08T01:19:02.048Z,15.72
2019-06-08T01:20:01.848Z,15.82
2019-06-08T01:21:02.055Z,15.86
2019-06-08T01:22:01.818Z,15.83
2019-06-08T01:23:02.079Z,15.83
2019-06-08T01:24:01.828Z,15.83
2019-06-08T01:25:01.548Z,15.73
2019-06-08T01:26:01.793Z,15.67
2019-06-08T01:27:02.094Z,15.62
2019-06-08T01:28:01.797Z,15.58
2019-06-08T01:29:02.045Z,15.67
2019-06-08T01:30:02.061Z,15.61
2019-06-08T01:31:01.544Z,15.62
2019-06-08T01:32:01.812Z,15.61
2019-06-08T01:33:01.772Z,15.68
2019-06-08T01:34:01.781Z,15.58
2019-06-08T01:35:02.045Z,15.68
2019-06-08T01:36:02.007Z,15.68
2019-06-08T01:37:01.792Z,15.76
2019-06-08T01:38:01.776Z,15.73
2019-06-08T01:39:01.525Z,15.73
2019-06-08T01:40:01.511Z,15.75
2019-06-08T01:41:01.793Z,15.73
2019-06-08T01:42:01.758Z,15.73
2019-06-08T01:43:02.024Z,15.83
2019-06-08T01:44:02.000Z,15.77
2019-06-08T01:45:02.055Z,15.75
2019-06-08T01:46:02.005Z,15.77
2019-06-08T01:47:01.761Z,15.73
2019-06-08T01:48:15.882Z,15.77
2019-06-08T01:49:01.751Z,15.7
2019-06-08T01:50:01.787Z,15.73
2019-06-08T01:51:01.732Z,15.64
2019-06-08T01:52:01.752Z,15.62
2019-06-08T01:53:01.759Z,15.73
2019-06-08T01:54:02.542Z,15.68
2019-06-08T01:55:01.998Z,15.67
2019-06-08T01:56:01.996Z,15.76
2019-06-08T01:57:01.727Z,15.61
2019-06-08T01:58:01.728Z,15.61
2019-06-08T01:59:01.472Z,15.61
2019-06-08T02:00:28.582Z,15.7
2019-06-08T02:01:01.962Z,15.75
2019-06-08T02:02:01.725Z,15.77
2019-06-08T02:03:01.979Z,15.76
2019-06-08T02:04:02.018Z,15.83
2019-06-08T02:05:01.971Z,15.77
2019-06-08T02:06:01.725Z,15.79
2019-06-08T02:07:01.720Z,15.83
2019-06-08T02:08:02.106Z,15.83
2019-06-08T02:09:01.738Z,15.83
2019-06-08T02:10:01.706Z,15.82
2019-06-08T02:11:01.464Z,15.79
2019-06-08T02:12:01.978Z,15.83
2019-06-08T02:13:01.959Z,15.83
2019-06-08T02:14:01.704Z,15.83
2019-06-08T02:15:01.960Z,15.82
2019-06-08T02:16:01.693Z,15.83
2019-06-08T02:17:01.946Z,15.86
2019-06-08T02:18:01.696Z,15.84
2019-06-08T02:19:01.695Z,15.76
2019-06-08T02:20:01.946Z,15.77
2019-06-08T02:21:01.934Z,15.82
2019-06-08T02:22:01.943Z,15.8
2019-06-08T02:23:01.715Z,15.73
2019-06-08T02:24:07.298Z,15.76
2019-06-08T02:25:01.950Z,15.8
2019-06-08T02:26:01.923Z,15.8
2019-06-08T02:27:01.433Z,15.86
2019-06-08T02:28:01.945Z,15.82
2019-06-08T02:29:01.981Z,15.88
2019-06-08T02:30:01.950Z,15.91
2019-06-08T02:31:01.925Z,15.84
2019-06-08T02:32:01.918Z,15.92
2019-06-08T02:33:01.950Z,15.9
2019-06-08T02:34:01.669Z,15.86
2019-06-08T02:35:01.443Z,15.86
2019-06-08T02:36:01.935Z,15.72
2019-06-08T02:37:01.667Z,15.83
2019-06-08T02:38:01.668Z,15.8
2019-06-08T02:39:01.913Z,15.73
2019-06-08T02:40:01.671Z,15.76
2019-06-08T02:41:01.911Z,15.76
2019-06-08T02:42:01.935Z,15.72
2019-06-08T02:43:01.972Z,15.75
2019-06-08T02:44:01.895Z,15.72
2019-06-08T02:45:01.907Z,15.83
2019-06-08T02:46:01.659Z,15.76
2019-06-08T02:47:01.927Z,15.79
2019-06-08T02:48:01.430Z,15.83
2019-06-08T02:49:08.943Z,15.83
2019-06-08T02:50:01.884Z,15.83
2019-06-08T02:51:01.896Z,15.9
2019-06-08T02:52:01.642Z,15.83
2019-06-08T02:53:01.897Z,15.86
2019-06-08T02:54:01.642Z,15.95
2019-06-08T02:55:02.161Z,15.84
2019-06-08T02:56:01.893Z,15.84
2019-06-08T02:57:01.646Z,15.86
2019-06-08T02:58:01.882Z,15.8
2019-06-08T02:59:01.620Z,15.8
2019-06-08T03:00:02.483Z,15.83
2019-06-08T03:01:01.872Z,15.84
2019-06-08T03:02:01.874Z,15.88
2019-06-08T03:03:01.893Z,16
2019-06-08T03:04:01.876Z,16.02
2019-06-08T03:05:01.620Z,16.04
2019-06-08T03:06:01.874Z,16.02
2019-06-08T03:07:01.878Z,15.97
2019-06-08T03:08:01.870Z,15.86
2019-06-08T03:09:01.887Z,15.95
2019-06-08T03:10:01.639Z,15.97
2019-06-08T03:11:01.604Z,16
2019-06-08T03:12:01.855Z,16.04
2019-06-08T03:13:01.630Z,16.08
2019-06-08T03:14:01.879Z,15.94
2019-06-08T03:15:01.887Z,15.88
2019-06-08T03:16:01.859Z,15.84
2019-06-08T03:17:01.606Z,15.86
2019-06-08T03:18:01.862Z,15.9
2019-06-08T03:19:22.037Z,15.92
2019-06-08T03:20:01.354Z,15.84
2019-06-08T03:21:01.863Z,15.86
2019-06-08T03:22:01.853Z,15.82
2019-06-08T03:23:01.846Z,15.83
2019-06-08T03:24:01.611Z,15.79
2019-06-08T03:25:02.890Z,15.82
2019-06-08T03:26:01.874Z,15.77
2019-06-08T03:27:01.826Z,15.75
2019-06-08T03:28:01.983Z,15.75
2019-06-08T03:29:01.821Z,15.76
2019-06-08T03:30:15.716Z,15.8
2019-06-08T03:31:01.837Z,15.83
2019-06-08T03:32:02.200Z,15.77
2019-06-08T03:33:02.271Z,15.75
2019-06-08T03:34:01.884Z,15.72
2019-06-08T03:35:01.786Z,15.82
2019-06-08T03:36:03.517Z,15.82
2019-06-08T03:37:02.497Z,15.82
2019-06-08T03:38:01.600Z,15.91
2019-06-08T03:39:01.814Z,16.02
2019-06-08T03:40:01.555Z,16.04
2019-06-08T03:41:01.805Z,15.97
2019-06-08T03:42:01.816Z,15.97
2019-06-08T03:43:04.390Z,15.9
2019-06-08T03:44:01.814Z,15.84
2019-06-08T03:45:01.563Z,15.9
2019-06-08T03:46:01.824Z,15.86
2019-06-08T03:47:01.818Z,15.82
2019-06-08T03:48:01.801Z,15.84
2019-06-08T03:49:01.805Z,15.88
2019-06-08T03:50:02.461Z,15.9
2019-06-08T03:51:01.802Z,15.88
2019-06-08T03:52:01.554Z,15.88
2019-06-08T03:53:01.554Z,15.86
2019-06-08T03:54:01.782Z,15.92
2019-06-08T03:55:01.548Z,15.92
2019-06-08T03:56:01.783Z,15.86
2019-06-08T03:57:01.792Z,15.83
2019-06-08T03:58:01.793Z,15.9
2019-06-08T03:59:01.779Z,15.95
2019-06-08T04:00:01.541Z,15.88
2019-06-08T04:01:01.528Z,15.95
2019-06-08T04:02:01.539Z,15.92
2019-06-08T04:03:01.775Z,16
2019-06-08T04:04:04.777Z,16.01
2019-06-08T04:05:01.774Z,15.97
2019-06-08T04:06:01.764Z,15.97
2019-06-08T04:07:01.776Z,15.88
2019-06-08T04:08:01.523Z,15.92
2019-06-08T04:09:01.771Z,15.9
2019-06-08T04:10:01.759Z,15.95
2019-06-08T04:11:01.518Z,15.94
2019-06-08T04:12:01.527Z,15.95
2019-06-08T04:13:01.537Z,15.98
2019-06-08T04:14:01.750Z,15.9
2019-06-08T04:15:01.803Z,15.95
2019-06-08T04:16:01.260Z,16.01
2019-06-08T04:17:01.506Z,15.98
2019-06-08T04:18:01.511Z,16.02
2019-06-08T04:19:01.745Z,16.02
2019-06-08T04:20:15.729Z,16.04
2019-06-08T04:21:01.781Z,16.01
2019-06-08T04:22:01.744Z,16.05
2019-06-08T04:23:01.240Z,16.05
2019-06-08T04:24:01.749Z,16.05
2019-06-08T04:25:01.753Z,16.04
2019-06-08T04:26:03.335Z,16.08
2019-06-08T04:27:01.745Z,16.1
2019-06-08T04:28:01.754Z,16.2
2019-06-08T04:29:01.736Z,16.17
2019-06-08T04:30:01.514Z,16.08
2019-06-08T04:31:01.745Z,16.13
2019-06-08T04:32:01.746Z,16.09
2019-06-08T04:33:01.731Z,16.04
2019-06-08T04:34:01.748Z,16.02
2019-06-08T04:35:01.480Z,16.01
2019-06-08T04:36:01.740Z,15.98
2019-06-08T04:37:01.730Z,15.98
2019-06-08T04:38:01.714Z,16.02
2019-06-08T04:39:01.731Z,16.02
2019-06-08T04:40:01.739Z,16.04
2019-06-08T04:41:01.728Z,16.1
2019-06-08T04:42:01.712Z,16.12
2019-06-08T04:43:01.715Z,16.15
2019-06-08T04:44:01.717Z,16.1
2019-06-08T04:45:01.749Z,16.28
2019-06-08T04:46:01.493Z,16.28
2019-06-08T04:47:01.468Z,16.28
2019-06-08T04:48:01.462Z,16.38
2019-06-08T04:49:01.713Z,16.33
2019-06-08T04:50:17.632Z,16.36
2019-06-08T04:51:01.690Z,16.41
2019-06-08T04:52:01.693Z,16.46
2019-06-08T04:53:01.481Z,16.38
2019-06-08T04:54:01.459Z,16.39
2019-06-08T04:55:01.720Z,16.42
2019-06-08T04:56:03.316Z,16.41
2019-06-08T04:57:01.458Z,16.38
2019-06-08T04:58:01.455Z,16.41
2019-06-08T04:59:01.724Z,16.54
2019-06-08T05:00:11.070Z,16.54
2019-06-08T05:01:01.709Z,16.58
2019-06-08T05:02:01.679Z,16.5
2019-06-08T05:03:01.449Z,16.58
2019-06-08T05:04:01.433Z,16.61
2019-06-08T05:05:01.675Z,16.54
2019-06-08T05:06:01.680Z,16.64
2019-06-08T05:07:01.702Z,16.68
2019-06-08T05:08:01.420Z,16.71
2019-06-08T05:09:01.685Z,16.71
2019-06-08T05:10:01.430Z,16.66
2019-06-08T05:11:01.430Z,16.54
2019-06-08T05:12:01.427Z,16.6
2019-06-08T05:13:01.447Z,16.57
2019-06-08T05:14:01.744Z,16.68
2019-06-08T05:15:01.674Z,16.71
2019-06-08T05:16:01.657Z,16.78
2019-06-08T05:17:01.672Z,16.81
2019-06-08T05:18:01.413Z,16.81
2019-06-08T05:19:01.415Z,16.81
2019-06-08T05:20:01.697Z,16.83
2019-06-08T05:21:01.414Z,16.87
2019-06-08T05:22:01.673Z,16.86
2019-06-08T05:23:01.671Z,16.87
2019-06-08T05:24:03.849Z,16.91
2019-06-08T05:25:01.680Z,16.9
2019-06-08T05:26:01.658Z,16.86
2019-06-08T05:27:01.399Z,16.86
2019-06-08T05:28:01.426Z,16.89
2019-06-08T05:29:01.665Z,16.91
2019-06-08T05:30:08.042Z,16.91
2019-06-08T05:31:01.166Z,16.89
2019-06-08T05:32:01.159Z,16.91
2019-06-08T05:33:01.684Z,16.87
2019-06-08T05:34:01.159Z,16.83
2019-06-08T05:35:01.408Z,16.79
2019-06-08T05:36:01.420Z,16.81
2019-06-08T05:37:01.421Z,16.87
2019-06-08T05:38:01.644Z,16.91
2019-06-08T05:39:01.697Z,16.84
2019-06-08T05:40:01.649Z,16.86
2019-06-08T05:41:01.429Z,16.83
2019-06-08T05:42:01.643Z,16.83
2019-06-08T05:43:01.185Z,16.78
2019-06-08T05:44:01.421Z,16.76
2019-06-08T05:45:01.521Z,16.76
2019-06-08T05:46:01.146Z,16.65
2019-06-08T05:47:01.689Z,16.5
2019-06-08T05:48:01.385Z,16.6
2019-06-08T05:49:01.394Z,16.61
2019-06-08T05:50:01.143Z,16.56
2019-06-08T05:51:08.983Z,16.61
2019-06-08T05:52:01.670Z,16.64
2019-06-08T05:53:01.386Z,16.69
2019-06-08T05:54:03.047Z,16.72
2019-06-08T05:55:01.628Z,16.81
2019-06-08T05:56:01.388Z,16.79
2019-06-08T05:57:01.629Z,16.83
2019-06-08T05:58:01.388Z,16.84
2019-06-08T05:59:01.631Z,16.86
2019-06-08T06:00:08.377Z,16.86
2019-06-08T06:01:01.150Z,16.91
2019-06-08T06:02:01.384Z,16.81
2019-06-08T06:03:01.638Z,16.86
2019-06-08T06:04:01.631Z,16.86
2019-06-08T06:05:01.482Z,16.76
2019-06-08T06:06:01.132Z,16.9
2019-06-08T06:07:01.629Z,16.89
2019-06-08T06:08:01.371Z,16.74
2019-06-08T06:09:01.372Z,16.87
2019-06-08T06:10:01.378Z,16.83
2019-06-08T06:11:01.134Z,16.96
2019-06-08T06:12:01.131Z,17.05
2019-06-08T06:13:01.629Z,17.16
2019-06-08T06:14:01.387Z,17.41
2019-06-08T06:15:01.414Z,17.49
2019-06-08T06:16:01.131Z,17.74
2019-06-08T06:17:01.423Z,17.83
2019-06-08T06:18:01.444Z,17.94
2019-06-08T06:19:01.132Z,17.85
2019-06-08T06:20:01.675Z,17.72
2019-06-08T06:21:15.036Z,17.79
2019-06-08T06:22:02.201Z,17.78
2019-06-08T06:23:03.541Z,17.92
2019-06-08T06:24:01.619Z,17.95
2019-06-08T06:25:01.647Z,17.9
2019-06-08T06:26:01.370Z,17.9
2019-06-08T06:27:02.423Z,18.08
2019-06-08T06:28:01.687Z,18.05
2019-06-08T06:29:01.407Z,18.31
2019-06-08T06:30:01.523Z,18.63
2019-06-08T06:31:01.384Z,19.15
2019-06-08T06:32:01.153Z,19.86
2019-06-08T06:33:01.647Z,20.58
2019-06-08T06:34:01.378Z,21.11
2019-06-08T06:35:01.619Z,21.55
2019-06-08T06:36:01.135Z,21.67
2019-06-08T06:37:02.161Z,21.76
2019-06-08T06:38:01.642Z,21.57
2019-06-08T06:39:01.389Z,21.66
2019-06-08T06:40:01.395Z,21.67
2019-06-08T06:41:01.646Z,21.79
2019-06-08T06:42:01.647Z,21.98
2019-06-08T06:43:01.685Z,22.36
2019-06-08T06:44:01.451Z,22.69
2019-06-08T06:45:01.414Z,22.88
2019-06-08T06:46:01.448Z,23.32
2019-06-08T06:47:01.183Z,23.54
2019-06-08T06:48:01.166Z,23.56
2019-06-08T06:49:01.664Z,23.68
2019-06-08T06:50:01.691Z,23.58
2019-06-08T06:51:01.672Z,23.39
2019-06-08T06:52:01.186Z,23.46
2019-06-08T06:53:01.190Z,23.55
2019-06-08T06:54:01.682Z,23.78
2019-06-08T06:55:01.722Z,23.8
2019-06-08T06:56:01.464Z,23.77
2019-06-08T06:57:01.830Z,23.71
2019-06-08T06:58:01.778Z,23.77
2019-06-08T06:59:01.454Z,23.62
2019-06-08T07:00:01.464Z,23.47
2019-06-08T07:01:01.485Z,23.15
2019-06-08T07:02:02.576Z,23.36
2019-06-08T07:03:01.514Z,23.54
2019-06-08T07:04:01.733Z,23.71
2019-06-08T07:05:01.558Z,23.48
2019-06-08T07:06:01.250Z,23.08
2019-06-08T07:07:01.517Z,22.8
2019-06-08T07:08:01.249Z,22.6
2019-06-08T07:09:01.505Z,22.23
2019-06-08T07:10:01.770Z,21.91
2019-06-08T07:11:01.774Z,21.92
2019-06-08T07:12:01.538Z,22.17
2019-06-08T07:13:01.782Z,22.62
2019-06-08T07:14:01.303Z,22.76
2019-06-08T07:15:01.301Z,22.72
2019-06-08T07:16:20.431Z,22.75
2019-06-08T07:17:02.592Z,22.83
2019-06-08T07:18:03.131Z,22.6
2019-06-08T07:19:03.610Z,22.76
2019-06-08T07:20:01.579Z,22.98
2019-06-08T07:21:03.274Z,22.94
2019-06-08T07:22:01.554Z,22.98
2019-06-08T07:23:01.821Z,22.87
2019-06-08T07:24:01.849Z,23.13
2019-06-08T07:25:01.580Z,23.43
2019-06-08T07:26:01.828Z,23.81
2019-06-08T07:27:01.338Z,23.55
2019-06-08T07:28:04.195Z,23.87
2019-06-08T07:29:01.598Z,24.01
2019-06-08T07:30:01.894Z,24.23
2019-06-08T07:31:01.862Z,24.5
2019-06-08T07:32:01.598Z,24.58
2019-06-08T07:33:01.912Z,24.63
2019-06-08T07:34:02.509Z,24.99
2019-06-08T07:35:01.859Z,25.41
2019-06-08T07:36:02.313Z,25.96
2019-06-08T07:37:02.026Z,26.36
2019-06-08T07:38:02.314Z,25.93
2019-06-08T07:39:02.083Z,25.83
2019-06-08T07:40:02.690Z,25.84
2019-06-08T07:41:04.746Z,25.75
2019-06-08T07:42:02.427Z,25.33
2019-06-08T07:43:02.901Z,25.08
2019-06-08T07:44:03.277Z,25.13
2019-06-08T07:45:02.826Z,25.13
2019-06-08T07:46:03.265Z,25.29
2019-06-08T07:47:02.593Z,25.55
2019-06-08T07:48:02.833Z,25.69
2019-06-08T07:49:03.170Z,26.02
2019-06-08T07:50:04.582Z,25.91
2019-06-08T07:51:03.127Z,25.72
2019-06-08T07:52:13.480Z,25.93
2019-06-08T07:53:01.967Z,26.38
2019-06-08T07:54:02.102Z,26.95
2019-06-08T07:55:03.093Z,27.35
2019-06-08T07:56:02.248Z,27.52
2019-06-08T07:57:01.497Z,27.87
2019-06-08T07:58:02.804Z,27.7
2019-06-08T07:59:02.087Z,27.51
2019-06-08T08:00:09.042Z,27.39
2019-06-08T08:01:12.074Z,27.22
2019-06-08T08:02:03.194Z,27.22
2019-06-08T08:03:02.840Z,27.25
2019-06-08T08:04:03.255Z,27.26
2019-06-08T08:05:03.376Z,27.37
2019-06-08T08:06:03.130Z,27.47
2019-06-08T08:07:03.580Z,27.85
2019-06-08T08:08:02.087Z,27.9
2019-06-08T08:09:03.149Z,28.22
2019-06-08T08:10:03.615Z,28
2019-06-08T08:11:03.451Z,27.58
2019-06-08T08:12:02.203Z,26.81
2019-06-08T08:13:02.100Z,26.36
2019-06-08T08:14:03.682Z,25.99
2019-06-08T08:15:03.179Z,25.91
2019-06-08T08:16:04.113Z,26.29
2019-06-08T08:17:02.128Z,26.55
2019-06-08T08:18:02.292Z,26.22
2019-06-08T08:19:02.461Z,25.51
2019-06-08T08:20:02.230Z,25.1
2019-06-08T08:21:26.000Z,25.43
2019-06-08T08:22:27.232Z,25.46
2019-06-08T08:23:11.566Z,25.26
2019-06-08T08:24:07.172Z,25.25
2019-06-08T08:25:10.707Z,25.48
2019-06-08T08:26:06.370Z,25.46
2019-06-08T08:27:10.680Z,25.48
2019-06-08T08:28:03.915Z,25.8
2019-06-08T08:29:08.463Z,26.34
2019-06-08T08:30:05.048Z,26.58
2019-06-08T08:31:04.832Z,26.33
2019-06-08T08:32:07.463Z,26.21
2019-06-08T08:33:10.084Z,25.77
2019-06-08T08:34:11.423Z,25.4
2019-06-08T08:35:05.353Z,25.35
2019-06-08T08:36:07.240Z,25.6
2019-06-08T08:37:11.350Z,25.85
2019-06-08T08:38:09.920Z,26.28
2019-06-08T08:39:08.139Z,26.47
2019-06-08T08:40:07.818Z,26.25
2019-06-08T08:41:13.338Z,26.28
2019-06-08T08:42:10.685Z,25.98
2019-06-08T08:43:04.440Z,26.02
2019-06-08T08:44:07.940Z,26.09
2019-06-08T08:45:10.728Z,25.87
2019-06-08T08:46:04.854Z,25.84
2019-06-08T08:47:07.592Z,26.03
2019-06-08T08:48:31.650Z,26.19
2019-06-08T08:49:15.440Z,26.31
2019-06-08T08:50:07.279Z,26.34
2019-06-08T08:51:08.524Z,26.45
2019-06-08T08:52:05.044Z,26.51
2019-06-08T08:53:08.190Z,26.4
2019-06-08T08:54:11.032Z,26.31
2019-06-08T08:55:05.380Z,26.06
2019-06-08T08:56:06.934Z,25.46
2019-06-08T08:57:10.986Z,24.78
2019-06-08T08:58:05.109Z,24.29
2019-06-08T08:59:07.735Z,23.78
2019-06-08T09:00:11.010Z,23.39
2019-06-08T09:01:08.128Z,23.31
2019-06-08T09:02:08.339Z,23.18
2019-06-08T09:03:35.401Z,22.83
2019-06-08T09:04:10.826Z,22.66
2019-06-08T09:05:08.323Z,22.62
2019-06-08T09:06:08.626Z,22.54
2019-06-08T09:07:11.993Z,22.36
2019-06-08T09:08:08.622Z,22.13
2019-06-08T09:09:08.632Z,21.98
2019-06-08T09:10:08.509Z,22.11
2019-06-08T09:11:08.142Z,22.13
2019-06-08T09:12:10.671Z,22.18
2019-06-08T09:13:09.150Z,22.2
2019-06-08T09:14:17.783Z,22.3
2019-06-08T09:15:08.511Z,22.32
2019-06-08T09:16:07.973Z,22.33
2019-06-08T09:17:08.517Z,22.35
2019-06-08T09:18:08.074Z,22.18
2019-06-08T09:19:08.453Z,22.13
2019-06-08T09:20:08.857Z,21.98
2019-06-08T09:21:08.333Z,21.7
2019-06-08T09:22:08.502Z,21.5
2019-06-08T09:23:21.510Z,21.46
2019-06-08T09:24:07.623Z,21.54
2019-06-08T09:25:08.736Z,21.61
2019-06-08T09:26:17.587Z,21.58
2019-06-08T09:27:07.981Z,21.62
2019-06-08T09:28:08.388Z,21.69
2019-06-08T09:29:10.182Z,21.72
2019-06-08T09:30:08.287Z,21.95
2019-06-08T09:31:08.403Z,21.89
2019-06-08T09:32:07.974Z,21.91
2019-06-08T09:33:07.953Z,22.1
2019-06-08T09:34:19.315Z,22.08
2019-06-08T09:35:09.285Z,22
2019-06-08T09:36:07.905Z,22.06
2019-06-08T09:37:10.252Z,22.18
2019-06-08T09:38:08.475Z,22.36
2019-06-08T09:39:12.834Z,22.35
2019-06-08T09:40:06.098Z,22.47
2019-06-08T09:41:08.927Z,22.55
2019-06-08T09:42:08.961Z,22.57
2019-06-08T09:43:15.433Z,22.59
2019-06-08T09:44:11.335Z,22.51
2019-06-08T09:45:08.837Z,22.43
2019-06-08T09:46:09.094Z,22.39
2019-06-08T09:47:14.723Z,22.3
2019-06-08T09:48:09.350Z,22.38
2019-06-08T09:49:13.901Z,22.36
2019-06-08T09:50:09.161Z,22.45
2019-06-08T09:51:09.219Z,22.53
2019-06-08T09:52:08.388Z,22.51
2019-06-08T09:53:38.665Z,22.44
2019-06-08T09:54:12.541Z,22.35
2019-06-08T09:55:11.323Z,22.22
2019-06-08T09:56:11.948Z,22.22
2019-06-08T09:57:09.004Z,22.23
2019-06-08T09:58:13.616Z,22.22
2019-06-08T09:59:15.244Z,22.26
2019-06-08T10:00:21.407Z,22.25
2019-06-08T10:01:12.182Z,22.22
2019-06-08T10:02:15.204Z,22.17
2019-06-08T10:03:09.767Z,22.1
2019-06-08T10:04:09.166Z,22.07
2019-06-08T10:05:08.400Z,22.08
2019-06-08T10:06:13.924Z,22.06
2019-06-08T10:07:08.785Z,22.18
2019-06-08T10:08:09.259Z,22.26
2019-06-08T10:09:04.726Z,22.29
2019-06-08T10:10:09.670Z,22.5
2019-06-08T10:11:09.567Z,22.48
2019-06-08T10:12:09.817Z,22.57
2019-06-08T10:13:11.187Z,22.65
2019-06-08T10:14:13.945Z,22.65
2019-06-08T10:15:04.722Z,22.68
2019-06-08T10:16:11.728Z,22.62
2019-06-08T10:17:08.854Z,22.57
2019-06-08T10:18:08.106Z,22.51
2019-06-08T10:19:12.470Z,22.59
2019-06-08T10:20:09.774Z,22.47
2019-06-08T10:21:09.578Z,22.26
2019-06-08T10:22:03.233Z,22.28
2019-06-08T10:23:30.529Z,22.2
2019-06-08T10:24:09.607Z,22.25
2019-06-08T10:25:11.512Z,22.28
2019-06-08T10:26:07.184Z,22.41
2019-06-08T10:27:08.573Z,22.48
2019-06-08T10:28:20.947Z,22.65
2019-06-08T10:29:09.735Z,22.69
2019-06-08T10:30:11.561Z,22.81
2019-06-08T10:31:07.045Z,22.88
2019-06-08T10:32:03.861Z,22.99
2019-06-08T10:33:10.154Z,22.87
2019-06-08T10:34:11.048Z,22.85
2019-06-08T10:35:10.291Z,22.87
2019-06-08T10:36:12.759Z,22.81
2019-06-08T10:37:14.641Z,22.84
2019-06-08T10:38:14.273Z,22.91
2019-06-08T10:39:13.256Z,22.87
2019-06-08T10:40:08.713Z,23.03
2019-06-08T10:41:21.640Z,23
2019-06-08T10:42:11.718Z,22.84
2019-06-08T10:43:09.413Z,22.84
2019-06-08T10:44:05.489Z,22.81
2019-06-08T10:45:15.263Z,22.8
2019-06-08T10:46:20.792Z,22.83
2019-06-08T10:47:10.482Z,22.83
2019-06-08T10:48:06.615Z,22.9
2019-06-08T10:49:09.483Z,22.96
2019-06-08T10:50:19.047Z,22.99
2019-06-08T10:51:11.141Z,23.08
2019-06-08T10:52:10.524Z,22.91
2019-06-08T10:53:15.843Z,22.99
2019-06-08T10:54:04.279Z,22.93
2019-06-08T10:55:10.293Z,22.88
2019-06-08T10:56:10.076Z,22.7
2019-06-08T10:57:09.989Z,22.81
2019-06-08T10:58:02.478Z,22.6
2019-06-08T10:59:12.289Z,22.48
2019-06-08T11:00:23.963Z,22.29
2019-06-08T11:01:13.394Z,22.32
2019-06-08T11:02:13.788Z,22.33
2019-06-08T11:03:10.486Z,22.32
2019-06-08T11:04:06.699Z,22.45
2019-06-08T11:05:14.391Z,22.66
2019-06-08T11:06:11.254Z,22.73
2019-06-08T11:07:16.416Z,22.83
2019-06-08T11:08:12.758Z,22.84
2019-06-08T11:09:15.647Z,22.93
2019-06-08T11:10:08.902Z,23.05
2019-06-08T11:11:09.704Z,23.12
2019-06-08T11:12:11.055Z,23.05
2019-06-08T11:13:18.826Z,22.85
2019-06-08T11:14:12.205Z,22.85
2019-06-08T11:15:09.560Z,22.96
2019-06-08T11:16:11.154Z,23.06
2019-06-08T11:17:04.870Z,23.12
2019-06-08T11:18:12.685Z,23.17
2019-06-08T11:19:11.325Z,23.2
2019-06-08T11:20:11.728Z,23.28
2019-06-08T11:21:10.669Z,23.2
2019-06-08T11:22:15.298Z,23.27
2019-06-08T11:23:06.034Z,23.39
2019-06-08T11:24:28.765Z,23.41
2019-06-08T11:25:13.249Z,23.43
2019-06-08T11:26:24.004Z,23.47
2019-06-08T11:27:08.148Z,23.41
2019-06-08T11:28:11.736Z,23.41
2019-06-08T11:29:09.084Z,23.48
2019-06-08T11:30:20.364Z,23.41
2019-06-08T11:31:05.945Z,23.5
2019-06-08T11:32:09.241Z,23.34
2019-06-08T11:33:09.211Z,23.34
2019-06-08T11:34:06.273Z,23.25
2019-06-08T11:35:05.776Z,23.36
2019-06-08T11:36:14.817Z,23.46
2019-06-08T11:37:11.416Z,23.47
2019-06-08T11:38:09.050Z,23.55
2019-06-08T11:39:09.057Z,23.69
2019-06-08T11:40:04.415Z,23.71
2019-06-08T11:41:12.094Z,23.88
2019-06-08T11:42:06.959Z,23.88
2019-06-08T11:43:04.701Z,23.98
2019-06-08T11:44:11.827Z,23.92
2019-06-08T11:45:04.770Z,24.01
2019-06-08T11:46:06.408Z,23.96
2019-06-08T11:47:04.566Z,23.92
2019-06-08T11:48:05.253Z,23.83
2019-06-08T11:49:13.271Z,23.78
2019-06-08T11:50:02.951Z,23.54
2019-06-08T11:51:06.647Z,23.5
2019-06-08T11:52:04.698Z,23.46
2019-06-08T11:53:10.544Z,23.43
2019-06-08T11:54:19.136Z,23.47
2019-06-08T11:55:11.168Z,23.44
2019-06-08T11:56:04.691Z,23.43
2019-06-08T11:57:03.198Z,23.41
2019-06-08T11:58:03.304Z,23.54
2019-06-08T11:59:03.488Z,23.59
2019-06-08T12:00:23.641Z,23.62
2019-06-08T12:01:11.548Z,23.47
2019-06-08T12:02:05.564Z,23.47
2019-06-08T12:03:06.135Z,23.31
2019-06-08T12:04:03.917Z,23.46
2019-06-08T12:05:03.862Z,23.36
2019-06-08T12:06:04.506Z,23.25
2019-06-08T12:07:04.503Z,23.12
2019-06-08T12:08:02.936Z,23.06
2019-06-08T12:09:06.374Z,22.85
2019-06-08T12:10:03.022Z,22.78
2019-06-08T12:11:17.013Z,22.87
2019-06-08T12:12:02.577Z,22.8
2019-06-08T12:13:02.920Z,22.85
2019-06-08T12:14:02.858Z,22.81
2019-06-08T12:15:03.018Z,23
2019-06-08T12:16:04.885Z,23.12
2019-06-08T12:17:10.792Z,23.25
2019-06-08T12:18:03.438Z,23.36
2019-06-08T12:19:04.273Z,23.41
2019-06-08T12:20:03.351Z,23.54
2019-06-08T12:21:08.244Z,23.63
2019-06-08T12:22:03.767Z,23.69
2019-06-08T12:23:03.895Z,23.55
2019-06-08T12:24:04.027Z,23.39
2019-06-08T12:25:03.791Z,23.46
2019-06-08T12:26:03.936Z,23.54
2019-06-08T12:27:33.589Z,23.44
2019-06-08T12:28:04.531Z,23.39
2019-06-08T12:29:09.869Z,23.41
2019-06-08T12:30:19.275Z,23.36
2019-06-08T12:31:07.364Z,23.36
2019-06-08T12:32:04.823Z,23.44
2019-06-08T12:33:03.020Z,23.39
2019-06-08T12:34:03.596Z,23.56
2019-06-08T12:35:05.149Z,23.77
2019-06-08T12:36:02.982Z,23.74
2019-06-08T12:37:02.974Z,23.78
2019-06-08T12:38:02.762Z,23.76
2019-06-08T12:39:03.395Z,23.87
2019-06-08T12:40:09.325Z,23.98
2019-06-08T12:41:03.545Z,23.88
2019-06-08T12:42:03.165Z,23.77
2019-06-08T12:43:04.487Z,23.8
2019-06-08T12:44:03.008Z,23.77
2019-06-08T12:45:03.324Z,23.88
2019-06-08T12:46:02.790Z,23.93
2019-06-08T12:47:03.499Z,23.92
2019-06-08T12:48:02.796Z,24.01
2019-06-08T12:49:03.221Z,23.92
2019-06-08T12:50:03.381Z,23.74
2019-06-08T12:51:02.769Z,23.71
2019-06-08T12:52:03.277Z,23.73
2019-06-08T12:53:03.018Z,23.66
2019-06-08T12:54:05.139Z,23.63
2019-06-08T12:55:24.375Z,23.66